createdAt,value
2023-06-04T00:00:34.006Z,101614.88
2023-06-04T00:03:01.761Z,101614.63
2023-06-04T00:05:29.477Z,101612.53
2023-06-04T00:07:57.168Z,101607.53
2023-06-04T00:10:24.773Z,101608.19
2023-06-04T00:12:52.440Z,101612.00
2023-06-04T00:15:20.092Z,101612.31
2023-06-04T00:17:49.206Z,101609.47
2023-06-04T00:20:16.882Z,101607.66
2023-06-04T00:22:44.663Z,101607.56
2023-06-04T00:25:12.344Z,101599.69
2023-06-04T00:27:40.027Z,101602.25
2023-06-04T00:30:09.483Z,101596.97
2023-06-04T00:32:38.022Z,101597.78
2023-06-04T00:35:07.944Z,101591.56
2023-06-04T00:37:35.620Z,101589.13
2023-06-04T00:40:03.305Z,101589.63
2023-06-04T00:42:31.015Z,101590.94
2023-06-04T00:44:59.304Z,101584.44
2023-06-04T00:47:27.322Z,101586.47
2023-06-04T00:49:55.908Z,101586.72
2023-06-04T00:52:24.930Z,101585.16
2023-06-04T00:54:52.974Z,101587.66
2023-06-04T00:57:20.652Z,101586.69
2023-06-04T00:59:48.359Z,101586.03
2023-06-04T01:02:17.252Z,101585.78
2023-06-04T01:04:46.836Z,101589.84
2023-06-04T01:07:15.584Z,101586.25
2023-06-04T01:09:44.679Z,101595.03
2023-06-04T01:12:12.692Z,101593.44
2023-06-04T01:14:40.407Z,101582.00
2023-06-04T01:17:09.707Z,101595.09
2023-06-04T01:20:00.900Z,101588.03
2023-06-04T01:22:32.498Z,101588.09
2023-06-04T01:25:03.536Z,101592.03
2023-06-04T01:27:31.300Z,101580.19
2023-06-04T01:29:58.994Z,101585.88
2023-06-04T01:32:26.717Z,101576.16
2023-06-04T01:34:54.462Z,101584.38
2023-06-04T01:37:22.194Z,101589.88
2023-06-04T01:39:49.885Z,101579.06
2023-06-04T01:42:18.985Z,101580.97
2023-06-04T01:44:46.974Z,101579.75
2023-06-04T01:47:15.743Z,101583.31
2023-06-04T01:49:43.506Z,101581.41
2023-06-04T01:52:11.965Z,101584.75
2023-06-04T01:54:40.130Z,101581.56
2023-06-04T01:57:09.004Z,101579.66
2023-06-04T01:59:39.821Z,101580.00
2023-06-04T02:02:07.748Z,101576.69
2023-06-04T02:04:37.589Z,101571.69
2023-06-04T02:07:05.536Z,101574.84
2023-06-04T02:09:33.219Z,101571.53
2023-06-04T02:12:00.892Z,101567.09
2023-06-04T02:14:29.159Z,101572.91
2023-06-04T02:16:59.238Z,101569.41
2023-06-04T02:19:27.981Z,101572.19
2023-06-04T02:21:55.671Z,101570.59
2023-06-04T02:24:26.538Z,101571.22
2023-06-04T02:26:54.216Z,101568.91
2023-06-04T02:29:22.557Z,101563.34
2023-06-04T02:31:50.339Z,101564.94
2023-06-04T02:34:19.848Z,101559.81
2023-06-04T02:36:49.256Z,101566.66
2023-06-04T02:39:16.998Z,101576.41
2023-06-04T02:41:44.644Z,101567.41
2023-06-04T02:44:12.366Z,101570.75
2023-06-04T02:46:40.144Z,101564.38
2023-06-04T02:49:07.935Z,101571.03
2023-06-04T02:51:37.471Z,101575.84
2023-06-04T02:54:05.167Z,101573.38
2023-06-04T02:56:32.820Z,101570.72
2023-06-04T02:59:00.601Z,101575.78
2023-06-04T03:01:28.738Z,101584.09
2023-06-04T03:03:56.745Z,101588.56
2023-06-04T03:06:25.137Z,101577.69
2023-06-04T03:08:54.344Z,101583.00
2023-06-04T03:11:22.483Z,101577.84
2023-06-04T03:13:50.191Z,101574.91
2023-06-04T03:16:17.965Z,101576.50
2023-06-04T03:18:46.117Z,101572.53
2023-06-04T03:21:14.319Z,101576.97
2023-06-04T03:23:42.334Z,101575.44
2023-06-04T03:26:13.930Z,101579.88
2023-06-04T03:28:42.370Z,101581.22
2023-06-04T03:31:11.815Z,101574.97
2023-06-04T03:33:39.583Z,101580.16
2023-06-04T03:36:07.347Z,101585.03
2023-06-04T03:38:36.750Z,101593.81
2023-06-04T03:41:05.344Z,101587.91
2023-06-04T03:43:34.761Z,101596.31
2023-06-04T03:46:05.929Z,101584.47
2023-06-04T03:48:33.930Z,101588.75
2023-06-04T03:51:01.976Z,101590.22
2023-06-04T03:53:29.940Z,101588.00
2023-06-04T03:55:57.822Z,101587.75
2023-06-04T03:58:25.828Z,101587.59
2023-06-04T04:00:55.362Z,101590.53
2023-06-04T04:03:24.792Z,101594.50
2023-06-04T04:05:53.274Z,101585.66
2023-06-04T04:08:22.386Z,101586.38
2023-06-04T04:10:50.639Z,101588.28
2023-06-04T04:13:18.346Z,101581.09
2023-06-04T04:15:46.389Z,101582.88
2023-06-04T04:18:18.047Z,101589.47
2023-06-04T04:20:46.921Z,101586.03
2023-06-04T04:23:14.965Z,101587.22
2023-06-04T04:25:46.051Z,101593.50
2023-06-04T04:28:14.695Z,101597.53
2023-06-04T04:30:42.940Z,101592.72
2023-06-04T04:33:11.922Z,101591.34
2023-06-04T04:35:46.590Z,101590.03
2023-06-04T04:38:18.229Z,101583.75
2023-06-04T04:40:53.368Z,101586.66
2023-06-04T04:43:30.151Z,101596.84
2023-06-04T04:45:59.119Z,101590.88
2023-06-04T04:48:27.014Z,101597.38
2023-06-04T04:50:56.209Z,101596.31
2023-06-04T04:53:24.032Z,101596.97
2023-06-04T04:55:51.837Z,101601.78
2023-06-04T04:58:19.618Z,101597.34
2023-06-04T05:00:48.807Z,101594.56
2023-06-04T05:03:16.704Z,101600.41
2023-06-04T05:05:45.474Z,101601.03
2023-06-04T05:08:15.902Z,101599.38
2023-06-04T05:10:44.728Z,101603.91
2023-06-04T05:13:12.497Z,101607.16
2023-06-04T05:15:48.937Z,101603.44
2023-06-04T05:18:21.519Z,101603.88
2023-06-04T05:20:50.226Z,101610.16
2023-06-04T05:23:19.724Z,101603.50
2023-06-04T05:25:51.501Z,101607.97
2023-06-04T05:28:21.575Z,101609.78
2023-06-04T05:30:49.741Z,101608.38
2023-06-04T05:33:19.774Z,101616.75
2023-06-04T05:35:58.703Z,101607.06
2023-06-04T05:38:32.002Z,101606.72
2023-06-04T05:41:04.999Z,101620.22
2023-06-04T05:43:36.031Z,101623.97
2023-06-04T05:46:04.161Z,101622.50
2023-06-04T05:48:31.855Z,101620.69
2023-06-04T05:50:59.597Z,101619.97
2023-06-04T05:53:27.369Z,101623.59
2023-06-04T05:55:56.532Z,101619.28
2023-06-04T05:58:24.353Z,101618.16
2023-06-04T06:00:52.445Z,101620.66
2023-06-04T06:03:21.454Z,101617.50
2023-06-04T06:05:50.947Z,101626.09
2023-06-04T06:08:18.728Z,101620.28
2023-06-04T06:10:47.127Z,101623.25
2023-06-04T06:13:16.308Z,101626.59
2023-06-04T06:15:44.554Z,101625.00
2023-06-04T06:18:12.397Z,101621.56
2023-06-04T06:20:40.147Z,101627.44
2023-06-04T06:23:08.293Z,101629.41
2023-06-04T06:25:41.355Z,101637.75
2023-06-04T06:28:16.454Z,101636.84
2023-06-04T06:30:46.253Z,101635.22
2023-06-04T06:33:14.077Z,101639.47
2023-06-04T06:35:41.840Z,101643.81
2023-06-04T06:38:09.620Z,101647.66
2023-06-04T06:40:37.323Z,101642.97
2023-06-04T06:43:05.158Z,101648.47
2023-06-04T06:45:35.971Z,101646.59
2023-06-04T06:48:06.176Z,101639.56
2023-06-04T06:50:34.475Z,101646.94
2023-06-04T06:53:02.187Z,101648.91
2023-06-04T06:55:29.857Z,101643.69
2023-06-04T06:57:57.776Z,101636.41
2023-06-04T07:00:26.143Z,101641.28
2023-06-04T07:02:55.344Z,101643.97
2023-06-04T07:05:23.203Z,101648.19
2023-06-04T07:07:50.820Z,101639.53
2023-06-04T07:10:18.531Z,101635.09
2023-06-04T07:12:46.189Z,101640.06
2023-06-04T07:15:13.922Z,101653.81
2023-06-04T07:17:41.622Z,101651.84
2023-06-04T07:20:11.059Z,101646.38
2023-06-04T07:22:38.768Z,101646.75
2023-06-04T07:25:07.650Z,101646.75
2023-06-04T07:27:35.669Z,101644.19
2023-06-04T07:30:03.383Z,101644.75
2023-06-04T07:32:31.175Z,101645.28
2023-06-04T07:34:58.971Z,101649.19
2023-06-04T07:37:28.047Z,101650.06
2023-06-04T07:39:55.911Z,101652.28
2023-06-04T07:42:23.643Z,101644.16
2023-06-04T07:44:51.357Z,101646.13
2023-06-04T07:47:19.093Z,101646.00
2023-06-04T07:50:01.246Z,101645.19
2023-06-04T07:52:31.445Z,101643.84
2023-06-04T07:54:59.165Z,101639.69
2023-06-04T07:57:27.036Z,101643.66
2023-06-04T07:59:54.703Z,101644.19
2023-06-04T08:02:22.533Z,101642.63
2023-06-04T08:04:51.039Z,101641.22
2023-06-04T08:07:18.783Z,101639.47
2023-06-04T08:09:47.860Z,101649.25
2023-06-04T08:12:17.133Z,101640.88
2023-06-04T08:14:44.884Z,101643.94
2023-06-04T08:17:12.495Z,101645.22
2023-06-04T08:19:40.300Z,101639.28
2023-06-04T08:22:08.011Z,101635.19
2023-06-04T08:24:38.681Z,101645.03
2023-06-04T08:27:09.466Z,101636.44
2023-06-04T08:29:38.155Z,101637.44
2023-06-04T08:32:06.749Z,101641.59
2023-06-04T08:34:34.489Z,101647.41
2023-06-04T08:37:02.437Z,101637.41
2023-06-04T08:39:30.127Z,101643.97
2023-06-04T08:42:02.279Z,101640.53
2023-06-04T08:44:31.685Z,101646.47
2023-06-04T08:47:04.905Z,101645.31
2023-06-04T08:49:32.707Z,101643.84
2023-06-04T08:52:00.411Z,101641.28
2023-06-04T08:54:28.064Z,101648.84
2023-06-04T08:56:58.182Z,101644.88
2023-06-04T08:59:26.338Z,101647.94
2023-06-04T09:01:56.034Z,101644.00
2023-06-04T09:04:23.770Z,101637.63
2023-06-04T09:06:51.421Z,101650.47
2023-06-04T09:09:19.138Z,101637.81
2023-06-04T09:11:48.721Z,101641.66
2023-06-04T09:14:18.434Z,101641.59
2023-06-04T09:16:46.726Z,101641.97
2023-06-04T09:19:15.905Z,101645.75
2023-06-04T09:21:53.106Z,101652.09
2023-06-04T09:24:21.903Z,101645.84
2023-06-04T09:26:49.948Z,101652.66
2023-06-04T09:29:17.702Z,101642.94
2023-06-04T09:31:48.098Z,101644.41
2023-06-04T09:34:17.291Z,101652.28
2023-06-04T09:36:45.222Z,101652.91
2023-06-04T09:39:19.168Z,101639.56
2023-06-04T09:41:46.921Z,101644.22
2023-06-04T09:44:14.579Z,101646.63
2023-06-04T09:46:42.280Z,101647.84
2023-06-04T09:49:10.075Z,101650.03
2023-06-04T09:51:48.555Z,101645.28
2023-06-04T09:54:16.309Z,101639.28
2023-06-04T09:56:44.065Z,101636.00
2023-06-04T09:59:12.055Z,101634.53
2023-06-04T10:01:40.980Z,101638.72
2023-06-04T10:04:09.000Z,101636.09
2023-06-04T10:06:37.398Z,101633.88
2023-06-04T10:09:08.632Z,101637.50
2023-06-04T10:11:36.735Z,101635.59
2023-06-04T10:14:05.282Z,101635.53
2023-06-04T10:16:34.914Z,101633.31
2023-06-04T10:19:03.136Z,101638.06
2023-06-04T10:21:32.683Z,101629.16
2023-06-04T10:24:00.816Z,101631.91
2023-06-04T10:26:31.049Z,101642.34
2023-06-04T10:28:58.798Z,101639.03
2023-06-04T10:31:26.708Z,101624.16
2023-06-04T10:33:55.880Z,101632.63
2023-06-04T10:36:24.004Z,101626.13
2023-06-04T10:38:55.018Z,101625.66
2023-06-04T10:41:24.015Z,101622.94
2023-06-04T10:43:53.301Z,101619.63
2023-06-04T10:46:21.461Z,101619.00
2023-06-04T10:48:49.970Z,101627.50
2023-06-04T10:51:18.139Z,101623.34
2023-06-04T10:53:46.148Z,101624.09
2023-06-04T10:56:13.877Z,101622.69
2023-06-04T10:58:41.525Z,101630.63
2023-06-04T11:01:10.902Z,101622.78
2023-06-04T11:03:39.027Z,101622.16
2023-06-04T11:06:17.013Z,101619.88
2023-06-04T11:08:44.748Z,101619.84
2023-06-04T11:11:13.206Z,101610.03
2023-06-04T11:13:40.939Z,101603.84
2023-06-04T11:16:18.459Z,101612.19
2023-06-04T11:18:46.314Z,101611.31
2023-06-04T11:21:16.092Z,101607.25
2023-06-04T11:23:44.416Z,101609.50
2023-06-04T11:26:12.153Z,101608.78
2023-06-04T11:28:39.869Z,101610.78
2023-06-04T11:31:09.664Z,101602.50
2023-06-04T11:33:45.672Z,101597.38
2023-06-04T11:36:13.376Z,101593.09
2023-06-04T11:38:41.058Z,101596.59
2023-06-04T11:41:08.919Z,101601.00
2023-06-04T11:43:40.190Z,101597.91
2023-06-04T11:46:11.290Z,101600.25
2023-06-04T11:48:39.862Z,101596.59
2023-06-04T11:51:10.725Z,101593.16
2023-06-04T11:53:38.781Z,101596.09
2023-06-04T11:56:06.492Z,101586.84
2023-06-04T11:58:34.414Z,101593.38
2023-06-04T12:01:02.085Z,101589.59
2023-06-04T12:03:35.727Z,101582.88
2023-06-04T12:06:12.704Z,101590.72
2023-06-04T12:08:50.179Z,101592.88
2023-06-04T12:11:28.911Z,101582.34
2023-06-04T12:13:57.093Z,101587.28
2023-06-04T12:16:24.841Z,101576.63
2023-06-04T12:18:52.760Z,101580.16
2023-06-04T12:21:23.887Z,101573.47
2023-06-04T12:23:51.725Z,101573.63
2023-06-04T12:26:29.595Z,101564.13
2023-06-04T12:29:01.249Z,101566.78
2023-06-04T12:31:32.945Z,101566.84
2023-06-04T12:34:01.795Z,101566.34
2023-06-04T12:36:30.843Z,101568.34
2023-06-04T12:39:00.265Z,101567.53
2023-06-04T12:41:28.069Z,101571.25
2023-06-04T12:43:55.959Z,101570.47
2023-06-04T12:46:23.998Z,101574.53
2023-06-04T12:48:51.920Z,101568.78
2023-06-04T12:51:19.687Z,101566.34
2023-06-04T12:53:49.290Z,101562.78
2023-06-04T12:56:17.222Z,101562.97
2023-06-04T12:58:44.901Z,101566.66
2023-06-04T13:01:12.642Z,101557.31
2023-06-04T13:03:41.849Z,101562.38
2023-06-04T13:06:09.690Z,101563.91
2023-06-04T13:08:37.930Z,101559.97
2023-06-04T13:11:07.624Z,101552.88
2023-06-04T13:13:35.467Z,101564.34
2023-06-04T13:16:03.242Z,101554.31
2023-06-04T13:18:30.947Z,101557.69
2023-06-04T13:20:58.646Z,101549.94
2023-06-04T13:23:34.278Z,101554.63
2023-06-04T13:26:06.938Z,101549.72
2023-06-04T13:28:34.658Z,101545.66
2023-06-04T13:31:02.652Z,101544.22
2023-06-04T13:33:30.370Z,101542.16
2023-06-04T13:35:58.033Z,101535.78
2023-06-04T13:38:25.718Z,101528.75
2023-06-04T13:40:54.205Z,101536.47
2023-06-04T13:43:23.235Z,101533.59
2023-06-04T13:45:50.931Z,101533.72
2023-06-04T13:48:18.658Z,101535.97
2023-06-04T13:50:46.590Z,101533.84
2023-06-04T13:53:14.431Z,101528.94
2023-06-04T13:55:42.221Z,101531.56
2023-06-04T13:58:09.906Z,101530.19
2023-06-04T14:00:38.927Z,101523.63
2023-06-04T14:03:06.758Z,101522.94
2023-06-04T14:05:34.543Z,101522.84
2023-06-04T14:08:03.894Z,101520.63
2023-06-04T14:10:31.611Z,101512.81
2023-06-04T14:12:59.273Z,101508.03
2023-06-04T14:15:27.294Z,101504.69
2023-06-04T14:17:56.483Z,101513.03
2023-06-04T14:20:24.203Z,101508.94
2023-06-04T14:22:51.955Z,101507.31
2023-06-04T14:25:19.639Z,101509.25
2023-06-04T14:27:47.337Z,101510.44
2023-06-04T14:30:15.316Z,101506.25
2023-06-04T14:32:43.411Z,101505.19
2023-06-04T14:35:13.690Z,101509.31
2023-06-04T14:37:41.373Z,101516.47
2023-06-04T14:40:09.450Z,101510.25
2023-06-04T14:42:37.114Z,101514.00
2023-06-04T14:45:05.033Z,101509.84
2023-06-04T14:47:32.751Z,101508.22
2023-06-04T14:50:00.554Z,101495.53
2023-06-04T14:52:29.996Z,101499.44
2023-06-04T14:54:57.669Z,101494.13
2023-06-04T14:57:25.347Z,101490.66
2023-06-04T14:59:53.022Z,101486.00
2023-06-04T15:02:21.736Z,101487.72
2023-06-04T15:04:49.532Z,101487.31
2023-06-04T15:07:17.192Z,101483.53
2023-06-04T15:09:48.788Z,101484.19
2023-06-04T15:12:17.959Z,101480.75
2023-06-04T15:14:45.698Z,101477.38
2023-06-04T15:17:13.413Z,101483.38
2023-06-04T15:19:41.619Z,101473.63
2023-06-04T15:22:09.489Z,101480.06
2023-06-04T15:24:37.180Z,101475.69
2023-06-04T15:27:06.595Z,101478.69
2023-06-04T15:29:34.270Z,101487.44
2023-06-04T15:32:02.038Z,101482.56
2023-06-04T15:34:29.737Z,101471.63
2023-06-04T15:36:57.446Z,101477.88
2023-06-04T15:39:25.240Z,101479.47
2023-06-04T15:41:52.911Z,101472.81
2023-06-04T15:44:21.926Z,101468.56
2023-06-04T15:46:49.612Z,101478.66
2023-06-04T15:49:17.919Z,101480.19
2023-06-04T15:51:45.649Z,101477.16
2023-06-04T15:54:13.294Z,101483.03
2023-06-04T15:56:40.984Z,101485.31
2023-06-04T15:59:08.783Z,101479.38
2023-06-04T16:01:38.239Z,101480.03
2023-06-04T16:04:06.049Z,101479.63
2023-06-04T16:06:33.797Z,101480.59
2023-06-04T16:09:01.493Z,101465.41
2023-06-04T16:11:29.316Z,101472.03
2023-06-04T16:13:57.010Z,101464.59
2023-06-04T16:16:24.741Z,101453.66
2023-06-04T16:18:53.828Z,101455.88
2023-06-04T16:21:21.678Z,101456.16
2023-06-04T16:23:49.371Z,101456.59
2023-06-04T16:26:17.054Z,101461.72
2023-06-04T16:28:44.756Z,101452.63
2023-06-04T16:31:12.504Z,101449.47
2023-06-04T16:33:40.437Z,101444.56
2023-06-04T16:36:09.731Z,101447.97
2023-06-04T16:38:37.540Z,101447.31
2023-06-04T16:41:05.789Z,101457.28
2023-06-04T16:43:33.512Z,101442.91
2023-06-04T16:46:01.222Z,101441.63
2023-06-04T16:48:28.855Z,101441.94
2023-06-04T16:50:56.685Z,101442.19
2023-06-04T16:53:25.762Z,101440.63
2023-06-04T16:55:53.400Z,101435.84
2023-06-04T16:58:21.101Z,101438.53
2023-06-04T17:00:49.357Z,101437.25
2023-06-04T17:03:17.337Z,101445.84
2023-06-04T17:05:45.257Z,101440.81
2023-06-04T17:08:12.908Z,101456.03
2023-06-04T17:10:41.954Z,101441.81
2023-06-04T17:13:09.665Z,101443.00
2023-06-04T17:15:37.535Z,101442.78
2023-06-04T17:18:11.378Z,101445.56
2023-06-04T17:20:39.494Z,101443.44
2023-06-04T17:23:19.891Z,101443.56
2023-06-04T17:25:49.020Z,101446.44
2023-06-04T17:28:17.145Z,101448.31
2023-06-04T17:30:44.822Z,101443.91
2023-06-04T17:33:12.543Z,101447.81
2023-06-04T17:35:40.553Z,101449.16
2023-06-04T17:38:08.270Z,101447.97
2023-06-04T17:40:36.092Z,101439.81
2023-06-04T17:43:05.133Z,101447.53
2023-06-04T17:45:33.246Z,101450.53
2023-06-04T17:48:01.088Z,101452.19
2023-06-04T17:50:28.832Z,101448.19
2023-06-04T17:52:58.710Z,101452.13
2023-06-04T17:55:27.763Z,101442.22
2023-06-04T17:57:56.582Z,101451.91
2023-06-04T18:00:25.755Z,101453.03
2023-06-04T18:02:53.450Z,101455.09
2023-06-04T18:05:21.170Z,101455.41
2023-06-04T18:07:48.809Z,101446.75
2023-06-04T18:10:16.469Z,101451.59
2023-06-04T18:12:45.953Z,101451.41
2023-06-04T18:15:14.684Z,101451.69
2023-06-04T18:17:43.749Z,101450.09
2023-06-04T18:20:11.902Z,101459.59
2023-06-04T18:22:39.651Z,101457.53
2023-06-04T18:25:08.812Z,101452.06
2023-06-04T18:27:36.797Z,101458.69
2023-06-04T18:30:04.549Z,101454.72
2023-06-04T18:32:32.253Z,101462.31
2023-06-04T18:35:01.282Z,101461.31
2023-06-04T18:37:28.946Z,101463.59
2023-06-04T18:39:56.966Z,101458.63
2023-06-04T18:42:30.841Z,101475.56
2023-06-04T18:45:00.487Z,101468.78
2023-06-04T18:47:28.574Z,101467.16
2023-06-04T18:49:57.284Z,101480.91
2023-06-04T18:52:26.387Z,101484.38
2023-06-04T18:54:54.082Z,101476.94
2023-06-04T18:57:21.767Z,101476.06
2023-06-04T18:59:49.441Z,101476.25
2023-06-04T19:02:17.187Z,101481.34
2023-06-04T19:04:46.133Z,101477.03
2023-06-04T19:07:13.750Z,101486.06
2023-06-04T19:09:42.859Z,101490.50
2023-06-04T19:12:10.654Z,101493.13
2023-06-04T19:14:38.501Z,101497.09
2023-06-04T19:17:06.398Z,101500.88
2023-06-04T19:19:34.121Z,101504.41
2023-06-04T19:22:01.763Z,101502.19
2023-06-04T19:24:29.457Z,101497.81
2023-06-04T19:26:58.468Z,101500.28
2023-06-04T19:29:26.125Z,101506.72
2023-06-04T19:31:53.820Z,101507.47
2023-06-04T19:34:21.595Z,101507.47
2023-06-04T19:36:49.432Z,101507.25
2023-06-04T19:39:17.067Z,101509.56
2023-06-04T19:41:44.791Z,101521.66
2023-06-04T19:44:13.831Z,101524.59
2023-06-04T19:46:41.546Z,101533.28
2023-06-04T19:49:09.429Z,101523.22
2023-06-04T19:51:37.445Z,101535.47
2023-06-04T19:54:05.207Z,101528.22
2023-06-04T19:56:32.861Z,101534.72
2023-06-04T19:59:01.350Z,101540.03
2023-06-04T20:01:30.550Z,101537.88
2023-06-04T20:03:58.422Z,101527.84
2023-06-04T20:06:26.359Z,101537.63
2023-06-04T20:08:54.085Z,101540.38
2023-06-04T20:11:22.947Z,101543.13
2023-06-04T20:13:50.642Z,101542.59
2023-06-04T20:16:18.452Z,101547.63
2023-06-04T20:18:47.796Z,101541.25
2023-06-04T20:21:15.526Z,101546.28
2023-06-04T20:23:43.333Z,101552.59
2023-06-04T20:26:11.060Z,101555.41
2023-06-04T20:28:38.914Z,101558.31
2023-06-04T20:31:06.699Z,101553.84
2023-06-04T20:33:34.611Z,101562.94
2023-06-04T20:36:03.688Z,101562.53
2023-06-04T20:38:31.753Z,101567.47
2023-06-04T20:40:59.398Z,101568.03
2023-06-04T20:43:27.071Z,101560.25
2023-06-04T20:45:57.275Z,101571.78
2023-06-04T20:48:25.146Z,101566.53
2023-06-04T20:50:52.870Z,101571.63
2023-06-04T20:53:21.886Z,101576.53
2023-06-04T20:55:49.528Z,101568.81
2023-06-04T20:58:18.602Z,101568.63
2023-06-04T21:00:47.031Z,101573.50
2023-06-04T21:03:15.135Z,101580.69
2023-06-04T21:05:42.940Z,101570.06
2023-06-04T21:08:11.126Z,101572.63
2023-06-04T21:10:40.622Z,101573.78
2023-06-04T21:13:08.308Z,101572.41
2023-06-04T21:15:36.038Z,101576.25
2023-06-04T21:18:03.850Z,101579.56
2023-06-04T21:20:31.578Z,101578.56
2023-06-04T21:22:59.236Z,101569.22
2023-06-04T21:25:26.912Z,101580.25
2023-06-04T21:27:55.999Z,101578.28
2023-06-04T21:30:24.002Z,101584.84
2023-06-04T21:32:51.722Z,101593.09
2023-06-04T21:35:19.537Z,101580.13
2023-06-04T21:37:47.221Z,101592.72
2023-06-04T21:40:14.956Z,101592.44
2023-06-04T21:42:42.681Z,101589.06
2023-06-04T21:45:12.854Z,101596.19
2023-06-04T21:47:41.132Z,101589.22
2023-06-04T21:50:09.321Z,101595.25
2023-06-04T21:52:36.954Z,101601.06
2023-06-04T21:55:04.845Z,101593.06
2023-06-04T21:57:32.502Z,101602.19
2023-06-04T22:00:00.320Z,101595.97
2023-06-04T22:02:29.514Z,101592.59
2023-06-04T22:04:57.238Z,101600.13
2023-06-04T22:07:24.960Z,101603.22
2023-06-04T22:09:52.637Z,101598.97
2023-06-04T22:12:22.279Z,101599.28
2023-06-04T22:14:50.226Z,101595.44
2023-06-04T22:17:17.858Z,101600.88
2023-06-04T22:19:46.881Z,101596.56
2023-06-04T22:22:14.557Z,101589.19
2023-06-04T22:24:42.208Z,101592.66
2023-06-04T22:27:09.871Z,101593.25
2023-06-04T22:29:37.530Z,101593.81
2023-06-04T22:32:05.312Z,101594.38
2023-06-04T22:34:33.104Z,101596.50
2023-06-04T22:37:02.146Z,101590.56
2023-06-04T22:39:29.872Z,101596.34
2023-06-04T22:41:57.591Z,101591.03
2023-06-04T22:44:25.566Z,101597.19
2023-06-04T22:46:53.374Z,101599.09
2023-06-04T22:49:21.105Z,101600.09
2023-06-04T22:51:48.828Z,101591.06
2023-06-04T22:54:17.870Z,101596.63
2023-06-04T22:56:45.606Z,101603.00
2023-06-04T22:59:13.318Z,101594.16
2023-06-04T23:01:41.183Z,101592.84
2023-06-04T23:04:08.934Z,101590.34
2023-06-04T23:06:38.770Z,101595.94
2023-06-04T23:09:06.486Z,101598.81
2023-06-04T23:11:35.632Z,101605.78
2023-06-04T23:14:03.511Z,101602.69
2023-06-04T23:16:31.267Z,101602.66
2023-06-04T23:18:58.981Z,101596.38
2023-06-04T23:21:26.623Z,101606.63
2023-06-04T23:23:54.377Z,101601.41
2023-06-04T23:26:22.326Z,101606.16
2023-06-04T23:28:51.460Z,101598.75
2023-06-04T23:31:19.213Z,101605.66
2023-06-04T23:33:46.967Z,101600.06
2023-06-04T23:36:14.721Z,101599.22
2023-06-04T23:38:42.448Z,101604.69
2023-06-04T23:41:10.356Z,101601.72
2023-06-04T23:43:38.258Z,101602.28
2023-06-04T23:46:07.327Z,101604.38
2023-06-04T23:48:35.059Z,101606.31
2023-06-04T23:51:02.692Z,101602.94
2023-06-04T23:53:30.793Z,101601.72
2023-06-04T23:55:58.416Z,101612.31
2023-06-04T23:58:26.145Z,101606.56
